createdAt,value
2018-09-20T00:02:05.681Z,5.23
2018-09-20T00:04:34.775Z,5.57
2018-09-20T00:07:03.970Z,5.87
2018-09-20T00:09:33.044Z,5.77
2018-09-20T00:12:02.105Z,6.27
2018-09-20T00:14:31.940Z,7.30
2018-09-20T00:17:01.132Z,6.20
2018-09-20T00:19:30.323Z,6.30
2018-09-20T00:21:59.514Z,6.20
2018-09-20T00:24:28.669Z,5.57
2018-09-20T00:26:57.872Z,6.20
2018-09-20T00:29:27.229Z,5.83
2018-09-20T00:31:56.264Z,6.27
2018-09-20T00:34:25.695Z,5.60
2018-09-20T00:36:54.845Z,6.30
2018-09-20T00:39:24.138Z,5.50
2018-09-20T00:41:53.176Z,5.47
2018-09-20T00:44:22.376Z,6.17
2018-09-20T00:46:51.649Z,5.50
2018-09-20T00:49:21.327Z,6.00
2018-09-20T00:51:50.464Z,5.83
2018-09-20T00:54:19.485Z,6.27
2018-09-20T00:56:48.515Z,6.17
2018-09-20T00:59:17.741Z,6.20
2018-09-20T01:01:47.029Z,5.80
2018-09-20T01:04:16.224Z,6.10
2018-09-20T01:06:45.443Z,5.93
2018-09-20T01:09:14.608Z,6.80
2018-09-20T01:11:43.861Z,6.37
2018-09-20T01:14:12.919Z,5.87
2018-09-20T01:16:42.067Z,6.33
2018-09-20T01:19:11.501Z,6.57
2018-09-20T01:21:41.123Z,6.63
2018-09-20T01:24:10.259Z,7.07
2018-09-20T01:26:39.316Z,6.83
2018-09-20T01:29:08.609Z,5.93
2018-09-20T01:31:37.775Z,6.27
2018-09-20T01:34:06.975Z,6.90
2018-09-20T01:36:36.130Z,6.97
2018-09-20T01:39:10.522Z,6.73
2018-09-20T01:41:39.835Z,6.80
2018-09-20T01:44:09.088Z,7.00
2018-09-20T01:46:38.452Z,6.70
2018-09-20T01:49:08.464Z,6.60
2018-09-20T01:51:37.606Z,7.23
2018-09-20T01:54:06.919Z,6.90
2018-09-20T01:56:36.159Z,7.17
2018-09-20T01:59:05.342Z,7.20
2018-09-20T02:01:34.733Z,7.00
2018-09-20T02:04:03.906Z,7.40
2018-09-20T02:06:33.050Z,7.00
2018-09-20T02:09:02.522Z,6.70
2018-09-20T02:11:31.696Z,7.30
2018-09-20T02:14:00.838Z,7.50
2018-09-20T02:16:29.940Z,6.60
2018-09-20T02:18:58.984Z,6.80
2018-09-20T02:21:28.112Z,7.60
2018-09-20T02:23:57.239Z,7.47
2018-09-20T02:26:26.487Z,6.90
2018-09-20T02:28:56.238Z,7.07
2018-09-20T02:31:25.387Z,6.60
2018-09-20T02:33:54.425Z,7.20
2018-09-20T02:36:24.398Z,7.03
2018-09-20T02:38:53.537Z,7.00
2018-09-20T02:41:22.694Z,7.17
2018-09-20T02:43:51.863Z,7.30
2018-09-20T02:46:21.255Z,7.00
2018-09-20T02:48:50.458Z,6.97
2018-09-20T02:51:19.724Z,6.60
2018-09-20T02:53:49.001Z,7.10
2018-09-20T02:56:18.124Z,6.93
2018-09-20T02:58:47.409Z,6.83
2018-09-20T03:01:16.950Z,7.13
2018-09-20T03:03:46.947Z,7.30
2018-09-20T03:06:16.348Z,6.83
2018-09-20T03:08:45.509Z,6.97
2018-09-20T03:11:14.748Z,7.07
2018-09-20T03:13:44.047Z,6.80
2018-09-20T03:16:13.251Z,6.87
2018-09-20T03:18:43.198Z,6.60
2018-09-20T03:21:12.463Z,6.63
2018-09-20T03:23:41.594Z,6.40
2018-09-20T03:26:11.644Z,6.83
2018-09-20T03:28:40.710Z,6.90
2018-09-20T03:31:09.802Z,6.80
2018-09-20T03:33:39.073Z,5.97
2018-09-20T03:36:08.247Z,6.67
2018-09-20T03:38:37.697Z,6.67
2018-09-20T03:41:06.768Z,6.63
2018-09-20T03:43:36.230Z,6.37
2018-09-20T03:46:05.491Z,6.50
2018-09-20T03:48:34.678Z,6.37
2018-09-20T03:51:03.786Z,6.40
2018-09-20T03:53:33.163Z,6.43
2018-09-20T03:56:02.426Z,6.33
2018-09-20T03:58:31.628Z,6.93
2018-09-20T04:01:00.885Z,6.37
2018-09-20T04:03:30.015Z,6.23
2018-09-20T04:05:59.281Z,6.73
2018-09-20T04:08:28.692Z,6.60
2018-09-20T04:10:57.846Z,6.33
2018-09-20T04:13:27.121Z,6.47
2018-09-20T04:15:56.361Z,6.40
2018-09-20T04:18:25.785Z,6.07
2018-09-20T04:20:55.161Z,6.63
2018-09-20T04:23:25.025Z,6.63
2018-09-20T04:25:54.081Z,6.30
2018-09-20T04:28:23.309Z,6.70
2018-09-20T04:30:52.497Z,6.70
2018-09-20T04:33:21.897Z,7.30
2018-09-20T04:35:50.963Z,6.30
2018-09-20T04:38:20.126Z,6.60
2018-09-20T04:40:49.407Z,6.50
2018-09-20T04:43:18.593Z,6.50
2018-09-20T04:45:47.808Z,6.50
2018-09-20T04:48:17.011Z,6.43
2018-09-20T04:50:46.336Z,7.03
2018-09-20T04:53:15.701Z,6.37
2018-09-20T04:55:45.088Z,7.00
2018-09-20T04:58:14.381Z,6.80
2018-09-20T05:00:43.498Z,7.60
2018-09-20T05:03:12.794Z,7.00
2018-09-20T05:05:42.009Z,7.10
2018-09-20T05:08:11.125Z,6.70
2018-09-20T05:10:40.438Z,6.97
2018-09-20T05:13:09.923Z,6.53
2018-09-20T05:15:40.158Z,6.87
2018-09-20T05:18:09.388Z,6.40
2018-09-20T05:20:38.535Z,6.43
2018-09-20T05:23:07.887Z,7.00
2018-09-20T05:25:37.008Z,7.33
2018-09-20T05:28:09.828Z,6.53
2018-09-20T05:30:39.015Z,8.70
2018-09-20T05:33:08.099Z,6.73
2018-09-20T05:36:11.001Z,6.63
2018-09-20T05:38:40.589Z,7.20
2018-09-20T05:41:09.746Z,6.93
2018-09-20T05:43:39.059Z,7.70
2018-09-20T05:46:08.253Z,6.53
2018-09-20T05:48:37.469Z,6.67
2018-09-20T05:51:07.332Z,6.47
2018-09-20T05:53:36.550Z,6.50
2018-09-20T05:56:05.885Z,6.27
2018-09-20T05:58:35.309Z,6.47
2018-09-20T06:01:04.693Z,6.13
2018-09-20T06:03:33.782Z,6.00
2018-09-20T06:06:03.055Z,6.63
2018-09-20T06:08:32.249Z,6.27
2018-09-20T06:11:01.365Z,6.40
2018-09-20T06:13:30.716Z,6.33
2018-09-20T06:15:59.781Z,6.40
2018-09-20T06:18:28.815Z,6.17
2018-09-20T06:20:57.967Z,6.53
2018-09-20T06:23:27.234Z,6.00
2018-09-20T06:25:56.556Z,5.87
2018-09-20T06:28:25.742Z,5.83
2018-09-20T06:30:54.875Z,6.60
2018-09-20T06:33:24.276Z,6.43
2018-09-20T06:35:53.913Z,5.73
2018-09-20T06:38:23.143Z,5.60
2018-09-20T06:40:53.289Z,6.13
2018-09-20T06:43:22.361Z,5.97
2018-09-20T06:45:51.669Z,6.17
2018-09-20T06:48:20.775Z,6.03
2018-09-20T06:50:49.937Z,6.23
2018-09-20T06:53:19.800Z,6.03
2018-09-20T06:55:49.086Z,5.57
2018-09-20T06:58:18.247Z,5.90
2018-09-20T07:00:47.594Z,6.00
2018-09-20T07:03:17.392Z,5.73
2018-09-20T07:05:47.491Z,5.70
2018-09-20T07:08:16.553Z,6.00
2018-09-20T07:10:45.678Z,5.90
2018-09-20T07:13:14.988Z,5.93
2018-09-20T07:15:45.135Z,6.10
2018-09-20T07:18:15.077Z,5.77
2018-09-20T07:20:44.339Z,5.60
2018-09-20T07:23:14.087Z,5.50
2018-09-20T07:25:43.243Z,6.00
2018-09-20T07:28:12.229Z,5.37
2018-09-20T07:30:41.467Z,5.80
2018-09-20T07:33:10.694Z,6.17
2018-09-20T07:35:39.941Z,5.80
2018-09-20T07:38:09.002Z,5.67
2018-09-20T07:40:38.255Z,5.83
2018-09-20T07:43:07.349Z,5.57
2018-09-20T07:45:36.397Z,5.60
2018-09-20T07:48:05.720Z,6.63
2018-09-20T07:50:34.902Z,5.60
2018-09-20T07:53:04.243Z,5.60
2018-09-20T07:55:33.337Z,5.77
2018-09-20T07:58:02.631Z,5.57
2018-09-20T08:00:31.738Z,5.83
2018-09-20T08:03:00.880Z,5.30
2018-09-20T08:05:29.926Z,5.90
2018-09-20T08:07:59.635Z,5.63
2018-09-20T08:10:29.070Z,5.53
2018-09-20T08:12:58.197Z,6.13
2018-09-20T08:15:27.436Z,5.10
2018-09-20T08:17:56.742Z,5.77
2018-09-20T08:20:26.125Z,5.37
2018-09-20T08:22:55.180Z,5.53
2018-09-20T08:25:24.501Z,5.30
2018-09-20T08:27:53.698Z,5.27
2018-09-20T08:30:22.816Z,5.07
2018-09-20T08:32:51.935Z,4.80
2018-09-20T08:35:21.090Z,4.83
2018-09-20T08:37:50.634Z,4.70
2018-09-20T08:40:19.773Z,4.67
2018-09-20T08:42:49.005Z,5.10
2018-09-20T08:45:18.263Z,4.90
2018-09-20T08:47:47.564Z,4.50
2018-09-20T08:50:16.626Z,4.33
2018-09-20T08:52:46.631Z,4.80
2018-09-20T08:55:15.831Z,5.17
2018-09-20T08:57:50.478Z,4.87
2018-09-20T09:00:19.962Z,4.80
2018-09-20T09:02:49.262Z,4.37
2018-09-20T09:05:18.448Z,4.47
2018-09-20T09:07:47.646Z,4.10
2018-09-20T09:10:16.931Z,4.73
2018-09-20T09:12:46.083Z,4.67
2018-09-20T09:15:15.250Z,4.90
2018-09-20T09:17:44.317Z,4.87
2018-09-20T09:20:13.426Z,4.20
2018-09-20T09:22:42.474Z,7.87
2018-09-20T09:25:11.799Z,4.63
2018-09-20T09:27:41.910Z,5.10
2018-09-20T09:30:11.129Z,5.60
2018-09-20T09:32:40.336Z,4.40
2018-09-20T09:35:09.579Z,4.40
2018-09-20T09:37:38.788Z,4.63
2018-09-20T09:40:08.229Z,5.13
2018-09-20T09:42:37.572Z,4.70
2018-09-20T09:45:06.927Z,4.47
2018-09-20T09:47:36.364Z,4.77
2018-09-20T09:50:06.498Z,5.03
2018-09-20T09:52:35.727Z,6.70
2018-09-20T09:55:05.228Z,5.77
2018-09-20T09:57:34.399Z,4.20
2018-09-20T10:00:07.178Z,4.80
2018-09-20T10:02:36.345Z,5.30
2018-09-20T10:05:06.171Z,4.60
2018-09-20T10:07:35.303Z,4.60
2018-09-20T10:10:04.892Z,4.70
2018-09-20T10:12:34.057Z,4.50
2018-09-20T10:15:03.376Z,4.67
2018-09-20T10:17:32.737Z,4.10
2018-09-20T10:20:02.063Z,4.53
2018-09-20T10:22:31.599Z,4.23
2018-09-20T10:25:00.900Z,3.90
2018-09-20T10:27:30.055Z,4.13
2018-09-20T10:29:59.253Z,4.50
2018-09-20T10:32:28.466Z,4.63
2018-09-20T10:34:57.660Z,4.67
2018-09-20T10:37:27.025Z,4.27
2018-09-20T10:39:56.176Z,4.43
2018-09-20T10:42:25.286Z,3.60
2018-09-20T10:45:09.422Z,4.30
2018-09-20T10:47:38.516Z,3.63
2018-09-20T10:50:07.657Z,3.33
2018-09-20T10:52:36.817Z,3.47
2018-09-20T10:55:05.886Z,3.47
2018-09-20T10:57:35.008Z,3.33
2018-09-20T11:00:04.533Z,3.13
2018-09-20T11:02:34.299Z,3.90
2018-09-20T11:05:03.359Z,3.60
2018-09-20T11:07:32.548Z,3.30
2018-09-20T11:10:01.723Z,3.87
2018-09-20T11:12:31.660Z,3.63
2018-09-20T11:15:00.962Z,3.50
2018-09-20T11:17:30.175Z,3.50
2018-09-20T11:19:59.327Z,3.67
2018-09-20T11:22:28.479Z,3.67
2018-09-20T11:24:57.837Z,3.53
2018-09-20T11:27:26.985Z,3.50
2018-09-20T11:29:56.173Z,3.23
2018-09-20T11:32:25.374Z,3.33
2018-09-20T11:34:54.661Z,3.50
2018-09-20T11:37:23.867Z,3.83
2018-09-20T11:39:53.008Z,3.13
2018-09-20T11:42:22.051Z,3.77
2018-09-20T11:44:51.231Z,3.60
2018-09-20T11:47:20.505Z,3.60
2018-09-20T11:49:49.555Z,3.50
2018-09-20T11:52:19.211Z,3.40
2018-09-20T11:54:48.386Z,3.17
2018-09-20T11:57:18.217Z,3.50
2018-09-20T11:59:47.292Z,3.10
2018-09-20T12:02:16.653Z,4.57
2018-09-20T12:04:45.717Z,3.50
2018-09-20T12:07:14.764Z,3.60
2018-09-20T12:09:43.804Z,3.07
2018-09-20T12:12:12.988Z,3.40
2018-09-20T12:14:42.230Z,3.23
2018-09-20T12:17:11.387Z,3.50
2018-09-20T12:19:40.428Z,3.20
2018-09-20T12:22:09.685Z,3.63
2018-09-20T12:24:39.075Z,3.27
2018-09-20T12:27:08.181Z,3.60
2018-09-20T12:29:37.845Z,3.60
2018-09-20T12:32:07.057Z,4.00
2018-09-20T12:34:36.342Z,3.77
2018-09-20T12:37:05.439Z,2.83
2018-09-20T12:39:34.703Z,3.30
2018-09-20T12:42:03.971Z,3.00
2018-09-20T12:44:33.164Z,3.10
2018-09-20T12:47:02.446Z,3.13
2018-09-20T12:49:31.685Z,3.47
2018-09-20T12:52:00.907Z,2.70
2018-09-20T12:54:30.179Z,2.90
2018-09-20T12:57:00.073Z,3.03
2018-09-20T12:59:29.248Z,3.10
2018-09-20T13:01:58.436Z,3.00
2018-09-20T13:04:27.734Z,3.00
2018-09-20T13:06:56.830Z,2.80
2018-09-20T13:09:25.939Z,2.63
2018-09-20T13:11:55.118Z,3.00
2018-09-20T13:14:24.253Z,3.10
2018-09-20T13:16:53.450Z,3.50
2018-09-20T13:19:22.665Z,3.60
2018-09-20T13:21:51.892Z,3.23
2018-09-20T13:24:21.162Z,3.10
2018-09-20T13:26:50.468Z,2.87
2018-09-20T13:29:19.824Z,3.13
2018-09-20T13:31:49.080Z,3.00
2018-09-20T13:34:18.281Z,2.77
2018-09-20T13:36:48.000Z,3.27
2018-09-20T13:39:17.204Z,2.77
2018-09-20T13:41:46.429Z,2.77
2018-09-20T13:44:15.670Z,2.97
2018-09-20T13:46:45.096Z,3.00
2018-09-20T13:49:14.294Z,2.97
2018-09-20T13:51:44.040Z,2.87
2018-09-20T13:54:13.157Z,2.73
2018-09-20T13:56:42.399Z,3.23
2018-09-20T13:59:11.536Z,3.13
2018-09-20T14:01:40.894Z,3.23
2018-09-20T14:04:10.083Z,3.03
2018-09-20T14:06:39.174Z,3.00
2018-09-20T14:09:10.031Z,2.60
2018-09-20T14:11:39.745Z,3.00
2018-09-20T14:14:09.047Z,2.80
2018-09-20T14:16:38.463Z,3.10
2018-09-20T14:19:07.856Z,3.05
2018-09-20T14:21:37.560Z,2.40
2018-09-20T14:24:07.628Z,2.77
2018-09-20T14:26:36.816Z,2.90
2018-09-20T14:29:06.386Z,2.70
2018-09-20T14:31:35.683Z,3.10
2018-09-20T14:34:04.954Z,2.50
2018-09-20T14:36:34.303Z,2.90
2018-09-20T14:39:04.407Z,2.63
2018-09-20T14:41:33.582Z,2.70
2018-09-20T14:44:02.697Z,2.70
2018-09-20T14:46:31.972Z,3.07
2018-09-20T14:49:01.209Z,2.80
2018-09-20T14:51:30.394Z,2.73
2018-09-20T14:53:59.676Z,2.52
2018-09-20T14:56:28.795Z,2.50
2018-09-20T14:58:58.043Z,2.50
2018-09-20T15:01:27.191Z,2.30
2018-09-20T15:03:56.322Z,2.80
2018-09-20T15:06:25.472Z,2.37
2018-09-20T15:08:55.014Z,2.40
2018-09-20T15:11:24.051Z,2.40
2018-09-20T15:13:53.193Z,2.60
2018-09-20T15:16:22.350Z,2.70
2018-09-20T15:18:51.523Z,2.80
2018-09-20T15:21:21.337Z,2.80
2018-09-20T15:23:50.697Z,2.67
2018-09-20T15:26:20.227Z,2.57
2018-09-20T15:28:49.486Z,2.40
2018-09-20T15:31:18.663Z,2.73
2018-09-20T15:33:48.098Z,2.77
2018-09-20T15:36:18.111Z,2.90
2018-09-20T15:38:47.208Z,2.80
2018-09-20T15:41:16.451Z,2.80
2018-09-20T15:43:45.819Z,3.00
2018-09-20T15:46:15.179Z,3.20
2018-09-20T15:48:44.352Z,3.47
2018-09-20T15:51:13.528Z,3.30
2018-09-20T15:53:42.738Z,3.23
2018-09-20T15:56:12.452Z,3.20
2018-09-20T15:58:41.818Z,3.30
2018-09-20T16:01:11.999Z,3.07
2018-09-20T16:03:41.289Z,2.83
2018-09-20T16:06:10.713Z,2.87
2018-09-20T16:08:41.003Z,3.00
2018-09-20T16:11:10.186Z,2.60
2018-09-20T16:13:39.353Z,2.87
2018-09-20T16:16:09.245Z,2.47
2018-09-20T16:18:38.443Z,2.85
2018-09-20T16:21:08.071Z,2.85
2018-09-20T16:23:39.248Z,2.90
2018-09-20T16:26:08.487Z,2.53
2018-09-20T16:28:53.151Z,2.53
2018-09-20T16:32:04.021Z,2.90
2018-09-20T16:34:46.130Z,2.30
2018-09-20T16:37:41.016Z,2.50
2018-09-20T16:40:12.603Z,2.47
2018-09-20T16:42:44.400Z,2.73
2018-09-20T16:45:13.433Z,2.60
2018-09-20T16:47:42.939Z,2.60
2018-09-20T16:50:12.054Z,2.40
2018-09-20T16:52:41.621Z,2.70
2018-09-20T16:55:10.696Z,2.63
2018-09-20T16:57:40.576Z,2.77
2018-09-20T17:00:11.844Z,2.63
2018-09-20T17:02:41.607Z,3.20
2018-09-20T17:05:11.324Z,3.23
2018-09-20T17:07:41.083Z,4.70
2018-09-20T17:10:10.245Z,4.23
2018-09-20T17:12:39.445Z,3.90
2018-09-20T17:15:08.776Z,3.97
2018-09-20T17:17:37.968Z,4.13
2018-09-20T17:20:07.187Z,4.47
2018-09-20T17:22:36.881Z,4.03
2018-09-20T17:25:06.138Z,4.27
2018-09-20T17:27:35.386Z,6.03
2018-09-20T17:30:04.701Z,5.53
2018-09-20T17:32:33.795Z,5.00
2018-09-20T17:35:03.026Z,5.00
2018-09-20T17:37:33.579Z,5.27
2018-09-20T17:40:03.331Z,4.93
2018-09-20T17:42:33.843Z,4.47
2018-09-20T17:45:03.070Z,4.47
2018-09-20T17:47:32.275Z,4.63
2018-09-20T17:50:01.439Z,4.00
2018-09-20T17:52:30.928Z,3.40
2018-09-20T17:55:00.764Z,3.40
2018-09-20T17:57:30.728Z,3.33
2018-09-20T17:59:59.922Z,3.37
2018-09-20T18:02:29.054Z,3.00
2018-09-20T18:04:58.161Z,3.00
2018-09-20T18:07:27.225Z,2.80
2018-09-20T18:09:56.395Z,2.93
2018-09-20T18:12:25.538Z,3.20
2018-09-20T18:14:54.689Z,3.00
2018-09-20T18:17:23.827Z,2.90
2018-09-20T18:19:53.197Z,2.70
2018-09-20T18:22:24.685Z,2.70
2018-09-20T18:24:55.277Z,2.93
2018-09-20T18:27:24.503Z,3.03
2018-09-20T18:29:53.552Z,2.57
2018-09-20T18:32:23.941Z,2.73
2018-09-20T18:34:53.063Z,2.93
2018-09-20T18:37:22.232Z,2.67
2018-09-20T18:39:51.546Z,2.60
2018-09-20T18:42:20.848Z,2.70
2018-09-20T18:44:49.936Z,2.80
2018-09-20T18:47:19.046Z,3.00
2018-09-20T18:49:48.351Z,3.00
2018-09-20T18:52:18.537Z,2.80
2018-09-20T18:54:48.550Z,2.80
2018-09-20T18:57:17.805Z,2.60
2018-09-20T18:59:46.936Z,2.73
2018-09-20T19:02:15.984Z,3.00
2018-09-20T19:04:45.290Z,3.00
2018-09-20T19:07:14.488Z,3.07
2018-09-20T19:09:43.758Z,2.80
2018-09-20T19:12:12.957Z,2.90
2018-09-20T19:14:42.124Z,3.00
2018-09-20T19:17:11.585Z,2.60
2018-09-20T19:19:40.858Z,2.53
2018-09-20T19:22:10.121Z,2.90
2018-09-20T19:24:39.274Z,2.90
2018-09-20T19:27:08.639Z,3.00
2018-09-20T19:29:37.862Z,3.50
2018-09-20T19:32:07.675Z,3.60
2018-09-20T19:34:37.431Z,3.27
2018-09-20T19:37:06.629Z,3.70
2018-09-20T19:39:35.788Z,3.80
2018-09-20T19:42:05.084Z,4.17
2018-09-20T19:44:34.270Z,3.90
2018-09-20T19:47:03.333Z,3.27
2018-09-20T19:49:32.716Z,3.43
2018-09-20T19:52:01.933Z,3.10
2018-09-20T19:54:31.206Z,3.13
2018-09-20T19:57:01.472Z,3.17
2018-09-20T19:59:30.851Z,3.57
2018-09-20T20:02:00.022Z,3.50
2018-09-20T20:04:29.144Z,3.47
2018-09-20T20:06:58.249Z,3.17
2018-09-20T20:09:27.477Z,3.60
2018-09-20T20:11:57.523Z,3.37
2018-09-20T20:14:26.654Z,3.37
2018-09-20T20:16:55.974Z,3.13
2018-09-20T20:19:25.101Z,3.40
2018-09-20T20:21:54.427Z,3.80
2018-09-20T20:24:23.625Z,3.40
2018-09-20T20:26:52.820Z,3.57
2018-09-20T20:29:21.960Z,3.70
2018-09-20T20:31:51.241Z,3.60
2018-09-20T20:34:20.544Z,4.00
2018-09-20T20:36:50.667Z,4.10
2018-09-20T20:39:19.987Z,3.80
2018-09-20T20:41:49.281Z,3.80
2018-09-20T20:44:18.613Z,3.97
2018-09-20T20:46:47.794Z,4.07
2018-09-20T20:49:17.538Z,4.10
2018-09-20T20:51:47.132Z,4.50
2018-09-20T20:54:16.852Z,4.70
2018-09-20T20:56:46.138Z,4.40
2018-09-20T20:59:15.229Z,4.50
2018-09-20T21:01:44.428Z,4.30
2018-09-20T21:04:13.727Z,4.60
2018-09-20T21:06:43.006Z,4.30
2018-09-20T21:09:12.333Z,4.33
2018-09-20T21:11:41.500Z,4.57
2018-09-20T21:14:10.757Z,3.97
2018-09-20T21:16:39.903Z,3.90
2018-09-20T21:19:09.208Z,3.87
2018-09-20T21:21:38.324Z,3.60
2018-09-20T21:24:07.435Z,3.47
2018-09-20T21:26:36.573Z,3.60
2018-09-20T21:29:06.106Z,4.03
2018-09-20T21:31:35.342Z,3.60
2018-09-20T21:34:05.214Z,3.37
2018-09-20T21:36:34.551Z,3.10
2018-09-20T21:39:04.439Z,3.57
2018-09-20T21:41:33.636Z,3.57
2018-09-20T21:44:03.155Z,3.73
2018-09-20T21:46:32.646Z,3.40
2018-09-20T21:49:01.769Z,3.10
2018-09-20T21:51:31.004Z,3.13
2018-09-20T21:54:00.049Z,3.33
2018-09-20T21:56:29.228Z,3.90
2018-09-20T21:58:58.670Z,3.60
2018-09-20T22:01:32.117Z,3.50
2018-09-20T22:04:04.324Z,3.23
2018-09-20T22:06:34.547Z,3.40
2018-09-20T22:09:04.968Z,3.50
2018-09-20T22:11:34.515Z,3.50
2018-09-20T22:14:03.782Z,3.70
2018-09-20T22:16:33.079Z,3.83
2018-09-20T22:19:02.348Z,3.70
2018-09-20T22:21:31.441Z,3.60
2018-09-20T22:24:01.428Z,3.60
2018-09-20T22:26:30.656Z,3.83
2018-09-20T22:28:59.997Z,3.80
2018-09-20T22:31:29.156Z,4.10
2018-09-20T22:33:58.567Z,4.00
2018-09-20T22:36:27.737Z,4.17
2018-09-20T22:38:57.080Z,4.13
2018-09-20T22:41:26.119Z,3.93
2018-09-20T22:43:55.220Z,4.43
2018-09-20T22:46:24.310Z,4.43
2018-09-20T22:48:53.344Z,4.27
2018-09-20T22:51:22.555Z,4.00
2018-09-20T22:53:51.704Z,4.10
2018-09-20T22:56:20.946Z,4.33
2018-09-20T22:58:50.745Z,4.00
2018-09-20T23:01:20.097Z,4.17
2018-09-20T23:03:49.355Z,4.27
2018-09-20T23:06:18.521Z,4.20
2018-09-20T23:08:48.291Z,3.93
2018-09-20T23:11:17.636Z,4.10
2018-09-20T23:13:47.101Z,4.33
2018-09-20T23:16:16.561Z,3.83
2018-09-20T23:18:45.833Z,4.10
2018-09-20T23:21:15.026Z,3.80
2018-09-20T23:23:44.269Z,4.13
2018-09-20T23:26:13.611Z,4.33
2018-09-20T23:28:42.772Z,3.83
2018-09-20T23:31:12.280Z,3.63
2018-09-20T23:33:41.436Z,3.50
2018-09-20T23:36:10.458Z,3.40
2018-09-20T23:38:39.630Z,3.90
2018-09-20T23:41:08.978Z,3.47
2018-09-20T23:43:38.263Z,3.80
2018-09-20T23:46:07.456Z,3.67
2018-09-20T23:48:36.515Z,3.50
2018-09-20T23:51:05.900Z,4.10
2018-09-20T23:53:35.055Z,3.70
2018-09-20T23:56:04.408Z,3.70
2018-09-20T23:58:33.557Z,3.30
